sensor_id;sensor_type;location;lat;lon;timestamp;pressure;altitude;pressure_sealevel;temperature;humidity
48553;BME280;34335;51.566;6.994;2023-05-12T00:00:16;100829.25;;;12.81;100.00
48553;BME280;34335;51.566;6.994;2023-05-12T00:02:41;100822.28;;;12.80;100.00
48553;BME280;34335;51.566;6.994;2023-05-12T00:05:07;100820.41;;;12.99;100.00
48553;BME280;34335;51.566;6.994;2023-05-12T00:07:33;100808.19;;;13.03;100.00
48553;BME280;34335;51.566;6.994;2023-05-12T00:09:58;100812.63;;;12.93;100.00
48553;BME280;34335;51.566;6.994;2023-05-12T00:12:24;100812.50;;;13.07;100.00
48553;BME280;34335;51.566;6.994;2023-05-12T00:14:49;100807.19;;;13.16;100.00
48553;BME280;34335;51.566;6.994;2023-05-12T00:17:15;100807.97;;;13.23;100.00
48553;BME280;34335;51.566;6.994;2023-05-12T00:19:40;100796.66;;;13.25;100.00
48553;BME280;34335;51.566;6.994;2023-05-12T00:22:08;100806.28;;;13.19;100.00
48553;BME280;34335;51.566;6.994;2023-05-12T00:24:33;100800.13;;;13.26;100.00
48553;BME280;34335;51.566;6.994;2023-05-12T00:26:59;100801.78;;;13.33;100.00
48553;BME280;34335;51.566;6.994;2023-05-12T00:29:25;100798.38;;;13.25;100.00
48553;BME280;34335;51.566;6.994;2023-05-12T00:31:50;100798.47;;;13.19;100.00
48553;BME280;34335;51.566;6.994;2023-05-12T00:34:15;100791.50;;;13.18;100.00
48553;BME280;34335;51.566;6.994;2023-05-12T00:36:40;100789.66;;;13.26;100.00
48553;BME280;34335;51.566;6.994;2023-05-12T00:39:06;100785.28;;;13.31;100.00
48553;BME280;34335;51.566;6.994;2023-05-12T00:41:31;100784.34;;;13.35;100.00
48553;BME280;34335;51.566;6.994;2023-05-12T00:43:56;100793.13;;;13.31;100.00
48553;BME280;34335;51.566;6.994;2023-05-12T00:46:22;100791.31;;;13.36;100.00
48553;BME280;34335;51.566;6.994;2023-05-12T00:48:47;100796.50;;;13.38;100.00
48553;BME280;34335;51.566;6.994;2023-05-12T00:51:14;100786.94;;;13.38;100.00
48553;BME280;34335;51.566;6.994;2023-05-12T00:53:40;100789.59;;;13.34;100.00
48553;BME280;34335;51.566;6.994;2023-05-12T00:56:06;100787.88;;;13.33;100.00
48553;BME280;34335;51.566;6.994;2023-05-12T00:58:32;100783.50;;;13.35;100.00
48553;BME280;34335;51.566;6.994;2023-05-12T01:00:57;100783.47;;;13.36;100.00
48553;BME280;34335;51.566;6.994;2023-05-12T01:03:23;100786.94;;;13.37;100.00
48553;BME280;34335;51.566;6.994;2023-05-12T01:05:55;100789.59;;;13.32;100.00
48553;BME280;34335;51.566;6.994;2023-05-12T01:08:23;100786.09;;;13.39;100.00
48553;BME280;34335;51.566;6.994;2023-05-12T01:10:48;100793.91;;;13.36;100.00
48553;BME280;34335;51.566;6.994;2023-05-12T01:13:14;100785.22;;;13.34;100.00
48553;BME280;34335;51.566;6.994;2023-05-12T01:15:43;100793.13;;;13.30;100.00
48553;BME280;34335;51.566;6.994;2023-05-12T01:18:11;100781.81;;;13.29;100.00
48553;BME280;34335;51.566;6.994;2023-05-12T01:20:38;100793.09;;;13.33;100.00
48553;BME280;34335;51.566;6.994;2023-05-12T01:23:05;100785.28;;;13.31;100.00
48553;BME280;34335;51.566;6.994;2023-05-12T01:25:31;100792.22;;;13.32;100.00
48553;BME280;34335;51.566;6.994;2023-05-12T01:27:58;100787.88;;;13.30;100.00
48553;BME280;34335;51.566;6.994;2023-05-12T01:30:25;100797.50;;;13.26;100.00
48553;BME280;34335;51.566;6.994;2023-05-12T01:32:51;100792.34;;;13.20;100.00
48553;BME280;34335;51.566;6.994;2023-05-12T01:35:17;100798.38;;;13.28;100.00
48553;BME280;34335;51.566;6.994;2023-05-12T01:37:42;100798.31;;;13.33;100.00
48553;BME280;34335;51.566;6.994;2023-05-12T01:40:08;100797.47;;;13.28;100.00
48553;BME280;34335;51.566;6.994;2023-05-12T01:42:33;100792.25;;;13.29;100.00
48553;BME280;34335;51.566;6.994;2023-05-12T01:44:58;100802.69;;;13.31;100.00
48553;BME280;34335;51.566;6.994;2023-05-12T01:47:24;100802.72;;;13.29;100.00
48553;BME280;34335;51.566;6.994;2023-05-12T01:49:49;100800.94;;;13.31;100.00
48553;BME280;34335;51.566;6.994;2023-05-12T01:52:15;100800.03;;;13.32;100.00
48553;BME280;34335;51.566;6.994;2023-05-12T01:54:41;100802.69;;;13.28;100.00
48553;BME280;34335;51.566;6.994;2023-05-12T01:57:06;100806.25;;;13.20;100.00
48553;BME280;34335;51.566;6.994;2023-05-12T01:59:32;100803.66;;;13.22;100.00
48553;BME280;34335;51.566;6.994;2023-05-12T02:01:57;100805.38;;;13.24;100.00
48553;BME280;34335;51.566;6.994;2023-05-12T02:04:22;100803.63;;;13.23;100.00
48553;BME280;34335;51.566;6.994;2023-05-12T02:06:48;100811.41;;;13.28;100.00
48553;BME280;34335;51.566;6.994;2023-05-12T02:09:13;100805.31;;;13.28;100.00
48553;BME280;34335;51.566;6.994;2023-05-12T02:11:38;100806.19;;;13.28;100.00
48553;BME280;34335;51.566;6.994;2023-05-12T02:14:04;100812.28;;;13.27;100.00
48553;BME280;34335;51.566;6.994;2023-05-12T02:16:30;100805.31;;;13.28;100.00
48553;BME280;34335;51.566;6.994;2023-05-12T02:18:55;100808.84;;;13.23;100.00
48553;BME280;34335;51.566;6.994;2023-05-12T02:21:21;100814.06;;;13.25;100.00
48553;BME280;34335;51.566;6.994;2023-05-12T02:23:46;100816.75;;;13.17;100.00
48553;BME280;34335;51.566;6.994;2023-05-12T02:26:12;100821.19;;;13.11;100.00
48553;BME280;34335;51.566;6.994;2023-05-12T02:28:37;100821.16;;;13.12;100.00
48553;BME280;34335;51.566;6.994;2023-05-12T02:31:03;100815.84;;;13.18;100.00
48553;BME280;34335;51.566;6.994;2023-05-12T02:33:28;100817.63;;;13.15;100.00
48553;BME280;34335;51.566;6.994;2023-05-12T02:35:54;100829.03;;;13.04;100.00
48553;BME280;34335;51.566;6.994;2023-05-12T02:38:19;100819.41;;;13.14;100.00
48553;BME280;34335;51.566;6.994;2023-05-12T02:40:45;100822.91;;;13.12;100.00
48553;BME280;34335;51.566;6.994;2023-05-12T02:43:10;100825.50;;;13.10;100.00
48553;BME280;34335;51.566;6.994;2023-05-12T02:45:36;100820.31;;;13.12;100.00
48553;BME280;34335;51.566;6.994;2023-05-12T02:48:01;100829.84;;;13.11;100.00
48553;BME280;34335;51.566;6.994;2023-05-12T02:50:26;100833.34;;;13.12;100.00
48553;BME280;34335;51.566;6.994;2023-05-12T02:52:52;100831.59;;;13.12;100.00
48553;BME280;34335;51.566;6.994;2023-05-12T02:55:17;100836.00;;;13.05;100.00
48553;BME280;34335;51.566;6.994;2023-05-12T02:57:43;100835.19;;;13.00;100.00
48553;BME280;34335;51.566;6.994;2023-05-12T03:00:08;100836.06;;;12.99;100.00
48553;BME280;34335;51.566;6.994;2023-05-12T03:02:35;100832.59;;;12.97;100.00
48553;BME280;34335;51.566;6.994;2023-05-12T03:05:02;100836.06;;;12.99;100.00
48553;BME280;34335;51.566;6.994;2023-05-12T03:07:28;100826.47;;;13.00;100.00
48553;BME280;34335;51.566;6.994;2023-05-12T03:09:53;100831.78;;;12.92;100.00
48553;BME280;34335;51.566;6.994;2023-05-12T03:12:18;100830.03;;;12.89;100.00
48553;BME280;34335;51.566;6.994;2023-05-12T03:14:44;100830.88;;;12.96;100.00
48553;BME280;34335;51.566;6.994;2023-05-12T03:17:09;100828.22;;;12.99;100.00
48553;BME280;34335;51.566;6.994;2023-05-12T03:19:34;100839.63;;;12.92;100.00
48553;BME280;34335;51.566;6.994;2023-05-12T03:22:00;100841.34;;;12.93;100.00
48553;BME280;34335;51.566;6.994;2023-05-12T03:24:27;100839.63;;;12.89;100.00
48553;BME280;34335;51.566;6.994;2023-05-12T03:26:52;100838.78;;;12.87;100.00
48553;BME280;34335;51.566;6.994;2023-05-12T03:29:19;100841.44;;;12.81;100.00
48553;BME280;34335;51.566;6.994;2023-05-12T03:31:44;100841.44;;;12.84;100.00
48553;BME280;34335;51.566;6.994;2023-05-12T03:34:09;100832.69;;;12.85;100.00
48553;BME280;34335;51.566;6.994;2023-05-12T03:36:35;100838.72;;;12.91;100.00
48553;BME280;34335;51.566;6.994;2023-05-12T03:39:01;100838.81;;;12.84;100.00
48553;BME280;34335;51.566;6.994;2023-05-12T03:41:27;100837.97;;;12.82;100.00
48553;BME280;34335;51.566;6.994;2023-05-12T03:43:52;100838.84;;;12.79;100.00
48553;BME280;34335;51.566;6.994;2023-05-12T03:46:18;100841.47;;;12.77;100.00
48553;BME280;34335;51.566;6.994;2023-05-12T03:48:43;100840.59;;;12.75;100.00
48553;BME280;34335;51.566;6.994;2023-05-12T03:51:08;100845.81;;;12.75;100.00
48553;BME280;34335;51.566;6.994;2023-05-12T03:53:33;100844.09;;;12.74;100.00
48553;BME280;34335;51.566;6.994;2023-05-12T03:56:05;100847.59;;;12.73;100.00
48553;BME280;34335;51.566;6.994;2023-05-12T03:58:30;100851.97;;;12.71;100.00
48553;BME280;34335;51.566;6.994;2023-05-12T04:00:56;100848.47;;;12.71;100.00
48553;BME280;34335;51.566;6.994;2023-05-12T04:03:21;100848.47;;;12.69;100.00
48553;BME280;34335;51.566;6.994;2023-05-12T04:05:47;100853.75;;;12.63;100.00
48553;BME280;34335;51.566;6.994;2023-05-12T04:08:12;100853.78;;;12.60;100.00
48553;BME280;34335;51.566;6.994;2023-05-12T04:10:38;100851.13;;;12.65;100.00
48553;BME280;34335;51.566;6.994;2023-05-12T04:13:04;100852.00;;;12.60;100.00
48553;BME280;34335;51.566;6.994;2023-05-12T04:15:29;100856.31;;;12.66;100.00
48553;BME280;34335;51.566;6.994;2023-05-12T04:17:55;100860.72;;;12.61;100.00
48553;BME280;34335;51.566;6.994;2023-05-12T04:20:20;100865.94;;;12.64;100.00
48553;BME280;34335;51.566;6.994;2023-05-12T04:22:46;100870.31;;;12.59;100.00
48553;BME280;34335;51.566;6.994;2023-05-12T04:25:12;100871.16;;;12.58;100.00
48553;BME280;34335;51.566;6.994;2023-05-12T04:27:37;100874.63;;;12.60;100.00
48553;BME280;34335;51.566;6.994;2023-05-12T04:30:02;100875.50;;;12.62;100.00
48553;BME280;34335;51.566;6.994;2023-05-12T04:32:28;100878.06;;;12.65;100.00
48553;BME280;34335;51.566;6.994;2023-05-12T04:34:53;100881.59;;;12.64;100.00
48553;BME280;34335;51.566;6.994;2023-05-12T04:37:20;100885.94;;;12.60;100.00
48553;BME280;34335;51.566;6.994;2023-05-12T04:39:46;100885.03;;;12.66;100.00
48553;BME280;34335;51.566;6.994;2023-05-12T04:42:12;100896.34;;;12.63;100.00
48553;BME280;34335;51.566;6.994;2023-05-12T04:44:37;100900.69;;;12.66;100.00
48553;BME280;34335;51.566;6.994;2023-05-12T04:47:02;100899.84;;;12.64;100.00
48553;BME280;34335;51.566;6.994;2023-05-12T04:49:28;100899.81;;;12.69;100.00
48553;BME280;34335;51.566;6.994;2023-05-12T04:51:53;100906.81;;;12.62;100.00
48553;BME280;34335;51.566;6.994;2023-05-12T04:54:18;100911.16;;;12.63;100.00
48553;BME280;34335;51.566;6.994;2023-05-12T04:56:44;100910.25;;;12.67;100.00
48553;BME280;34335;51.566;6.994;2023-05-12T04:59:09;100919.81;;;12.65;100.00
48553;BME280;34335;51.566;6.994;2023-05-12T05:01:35;100925.03;;;12.65;100.00
48553;BME280;34335;51.566;6.994;2023-05-12T05:04:01;100927.63;;;12.70;100.00
48553;BME280;34335;51.566;6.994;2023-05-12T05:06:26;100937.19;;;12.69;100.00
48553;BME280;34335;51.566;6.994;2023-05-12T05:08:52;100938.06;;;12.68;100.00
48553;BME280;34335;51.566;6.994;2023-05-12T05:11:19;100945.88;;;12.70;100.00
48553;BME280;34335;51.566;6.994;2023-05-12T05:13:46;100945.03;;;12.72;100.00
48553;BME280;34335;51.566;6.994;2023-05-12T05:16:11;100958.03;;;12.78;100.00
48553;BME280;34335;51.566;6.994;2023-05-12T05:18:37;100960.66;;;12.77;100.00
48553;BME280;34335;51.566;6.994;2023-05-12T05:21:02;100957.16;;;12.76;100.00
48553;BME280;34335;51.566;6.994;2023-05-12T05:23:27;100969.34;;;12.76;100.00
48553;BME280;34335;51.566;6.994;2023-05-12T05:25:53;100970.97;;;12.96;100.00
48553;BME280;34335;51.566;6.994;2023-05-12T05:28:18;100979.66;;;12.96;100.00
48553;BME280;34335;51.566;6.994;2023-05-12T05:30:43;100984.88;;;12.96;100.00
48553;BME280;34335;51.566;6.994;2023-05-12T05:33:09;100985.72;;;13.03;100.00
48553;BME280;34335;51.566;6.994;2023-05-12T05:35:36;100985.66;;;13.11;100.00
48553;BME280;34335;51.566;6.994;2023-05-12T05:38:01;100987.28;;;13.24;100.00
48553;BME280;34335;51.566;6.994;2023-05-12T05:40:27;100995.16;;;13.19;100.00
48553;BME280;34335;51.566;6.994;2023-05-12T05:42:52;100994.34;;;13.14;100.00
48553;BME280;34335;51.566;6.994;2023-05-12T05:45:17;101004.75;;;13.19;100.00
48553;BME280;34335;51.566;6.994;2023-05-12T05:47:43;100996.91;;;13.20;100.00
48553;BME280;34335;51.566;6.994;2023-05-12T05:50:08;101001.28;;;13.20;100.00
48553;BME280;34335;51.566;6.994;2023-05-12T05:52:34;100996.91;;;13.20;100.00
48553;BME280;34335;51.566;6.994;2023-05-12T05:54:59;101002.13;;;13.22;100.00
48553;BME280;34335;51.566;6.994;2023-05-12T05:57:25;101001.22;;;13.26;100.00
48553;BME280;34335;51.566;6.994;2023-05-12T05:59:52;101007.28;;;13.33;100.00
48553;BME280;34335;51.566;6.994;2023-05-12T06:02:17;100994.16;;;13.37;100.00
48553;BME280;34335;51.566;6.994;2023-05-12T06:04:43;101008.19;;;13.27;100.00
48553;BME280;34335;51.566;6.994;2023-05-12T06:07:08;101009.00;;;13.34;100.00
48553;BME280;34335;51.566;6.994;2023-05-12T06:09:33;101008.06;;;13.46;100.00
48553;BME280;34335;51.566;6.994;2023-05-12T06:11:58;101007.19;;;13.50;100.00
48553;BME280;34335;51.566;6.994;2023-05-12T06:14:24;101010.50;;;13.66;100.00
48553;BME280;34335;51.566;6.994;2023-05-12T06:16:49;101004.44;;;13.64;100.00
48553;BME280;34335;51.566;6.994;2023-05-12T06:19:14;101017.41;;;13.71;100.00
48553;BME280;34335;51.566;6.994;2023-05-12T06:21:40;101016.59;;;13.69;100.00
48553;BME280;34335;51.566;6.994;2023-05-12T06:24:05;101020.84;;;13.80;100.00
48553;BME280;34335;51.566;6.994;2023-05-12T06:26:31;101026.03;;;13.83;100.00
48553;BME280;34335;51.566;6.994;2023-05-12T06:28:56;101032.97;;;13.85;100.00
48553;BME280;34335;51.566;6.994;2023-05-12T06:31:21;101032.13;;;13.85;100.00
48553;BME280;34335;51.566;6.994;2023-05-12T06:33:47;101036.44;;;13.87;100.00
48553;BME280;34335;51.566;6.994;2023-05-12T06:36:12;101036.44;;;13.91;100.00
48553;BME280;34335;51.566;6.994;2023-05-12T06:38:37;101042.50;;;13.94;100.00
48553;BME280;34335;51.566;6.994;2023-05-12T06:41:03;101040.78;;;13.92;100.00
48553;BME280;34335;51.566;6.994;2023-05-12T06:43:28;101042.47;;;13.96;100.00
48553;BME280;34335;51.566;6.994;2023-05-12T06:45:53;101044.22;;;13.98;100.00
48553;BME280;34335;51.566;6.994;2023-05-12T06:48:20;101047.66;;;14.00;100.00
48553;BME280;34335;51.566;6.994;2023-05-12T06:50:47;101052.94;;;13.96;100.00
48553;BME280;34335;51.566;6.994;2023-05-12T06:53:12;101048.56;;;13.95;100.00
48553;BME280;34335;51.566;6.994;2023-05-12T06:55:37;101057.22;;;14.05;100.00
48553;BME280;34335;51.566;6.994;2023-05-12T06:58:03;101053.69;;;14.09;100.00
48553;BME280;34335;51.566;6.994;2023-05-12T07:00:28;101058.84;;;14.15;100.00
48553;BME280;34335;51.566;6.994;2023-05-12T07:02:53;101064.97;;;14.14;100.00
48553;BME280;34335;51.566;6.994;2023-05-12T07:05:19;101060.53;;;14.21;100.00
48553;BME280;34335;51.566;6.994;2023-05-12T07:07:44;101069.16;;;14.30;100.00
48553;BME280;34335;51.566;6.994;2023-05-12T07:10:10;101065.72;;;14.24;100.00
48553;BME280;34335;51.566;6.994;2023-05-12T07:12:35;101072.72;;;14.23;100.00
48553;BME280;34335;51.566;6.994;2023-05-12T07:15:02;101070.94;;;14.27;100.00
48553;BME280;34335;51.566;6.994;2023-05-12T07:17:28;101070.06;;;14.25;100.00
48553;BME280;34335;51.566;6.994;2023-05-12T07:19:53;101071.91;;;14.18;100.00
48553;BME280;34335;51.566;6.994;2023-05-12T07:22:19;101072.75;;;14.22;100.00
48553;BME280;34335;51.566;6.994;2023-05-12T07:24:44;101084.94;;;14.21;100.00
48553;BME280;34335;51.566;6.994;2023-05-12T07:27:10;101084.09;;;14.19;100.00
48553;BME280;34335;51.566;6.994;2023-05-12T07:29:35;101084.13;;;14.14;100.00
48553;BME280;34335;51.566;6.994;2023-05-12T07:32:01;101085.03;;;14.12;100.00
48553;BME280;34335;51.566;6.994;2023-05-12T07:34:26;101091.06;;;14.20;100.00
48553;BME280;34335;51.566;6.994;2023-05-12T07:36:51;101091.06;;;14.22;100.00
48553;BME280;34335;51.566;6.994;2023-05-12T07:39:17;101091.09;;;14.17;100.00
48553;BME280;34335;51.566;6.994;2023-05-12T07:41:48;101092.84;;;14.18;100.00
48553;BME280;34335;51.566;6.994;2023-05-12T07:44:13;101087.72;;;14.02;100.00
48553;BME280;34335;51.566;6.994;2023-05-12T07:46:39;101093.66;;;14.20;100.00
48553;BME280;34335;51.566;6.994;2023-05-12T07:49:04;101091.88;;;14.25;100.00
48553;BME280;34335;51.566;6.994;2023-05-12T07:51:30;101091.94;;;14.19;100.00
48553;BME280;34335;51.566;6.994;2023-05-12T07:53:56;101098.06;;;14.18;100.00
48553;BME280;34335;51.566;6.994;2023-05-12T07:56:22;101094.53;;;14.22;100.00
48553;BME280;34335;51.566;6.994;2023-05-12T07:58:47;101104.09;;;14.25;100.00
48553;BME280;34335;51.566;6.994;2023-05-12T08:01:12;101109.28;;;14.31;100.00
48553;BME280;34335;51.566;6.994;2023-05-12T08:03:38;101103.22;;;14.24;100.00
48553;BME280;34335;51.566;6.994;2023-05-12T08:06:03;101109.31;;;14.25;100.00
48553;BME280;34335;51.566;6.994;2023-05-12T08:08:31;101104.06;;;14.28;100.00
48553;BME280;34335;51.566;6.994;2023-05-12T08:10:56;101119.72;;;14.29;100.00
48553;BME280;34335;51.566;6.994;2023-05-12T08:13:21;101113.53;;;14.40;100.00
48553;BME280;34335;51.566;6.994;2023-05-12T08:15:48;101119.59;;;14.45;100.00
48553;BME280;34335;51.566;6.994;2023-05-12T08:18:14;101118.72;;;14.46;100.00
48553;BME280;34335;51.566;6.994;2023-05-12T08:20:40;101125.69;;;14.47;100.00
48553;BME280;34335;51.566;6.994;2023-05-12T08:23:05;101129.13;;;14.49;100.00
48553;BME280;34335;51.566;6.994;2023-05-12T08:25:31;101133.50;;;14.52;100.00
48553;BME280;34335;51.566;6.994;2023-05-12T08:27:58;101123.84;;;14.55;100.00
48553;BME280;34335;51.566;6.994;2023-05-12T08:30:24;101126.47;;;14.54;100.00
48553;BME280;34335;51.566;6.994;2023-05-12T08:32:49;101126.34;;;14.68;100.00
48553;BME280;34335;51.566;6.994;2023-05-12T08:35:15;101125.41;;;14.75;100.00
48553;BME280;34335;51.566;6.994;2023-05-12T08:37:40;101132.28;;;14.84;100.00
48553;BME280;34335;51.566;6.994;2023-05-12T08:40:17;101137.47;;;14.88;100.00
48553;BME280;34335;51.566;6.994;2023-05-12T08:45:39;101124.13;;;15.08;100.00
48553;BME280;34335;51.566;6.994;2023-05-12T08:48:08;101133.84;;;14.99;100.00
48553;BME280;34335;51.566;6.994;2023-05-12T08:50:37;101134.59;;;15.10;100.00
48553;BME280;34335;51.566;6.994;2023-05-12T08:53:03;101140.69;;;15.12;100.00
48553;BME280;34335;51.566;6.994;2023-05-12T08:55:29;101142.22;;;15.27;100.00
48553;BME280;34335;51.566;6.994;2023-05-12T08:57:57;101142.97;;;15.35;100.00
48553;BME280;34335;51.566;6.994;2023-05-12T09:00:22;101143.69;;;15.45;100.00
48553;BME280;34335;51.566;6.994;2023-05-12T09:02:50;101144.41;;;15.56;100.00
48553;BME280;34335;51.566;6.994;2023-05-12T09:05:16;101139.06;;;15.64;100.00
48553;BME280;34335;51.566;6.994;2023-05-12T09:07:42;101137.88;;;15.87;100.00
48553;BME280;34335;51.566;6.994;2023-05-12T09:10:14;101145.81;;;15.81;100.00
48553;BME280;34335;51.566;6.994;2023-05-12T09:12:41;101138.69;;;15.91;100.00
48553;BME280;34335;51.566;6.994;2023-05-12T09:15:10;101146.38;;;16.01;100.00
48553;BME280;34335;51.566;6.994;2023-05-12T09:17:38;101141.53;;;16.28;100.00
48553;BME280;34335;51.566;6.994;2023-05-12T09:20:04;101137.94;;;16.34;100.00
48553;BME280;34335;51.566;6.994;2023-05-12T09:22:32;101145.47;;;16.52;100.00
48553;BME280;34335;51.566;6.994;2023-05-12T09:25:00;101148.91;;;16.58;100.00
48553;BME280;34335;51.566;6.994;2023-05-12T09:27:27;101149.63;;;16.66;100.00
48553;BME280;34335;51.566;6.994;2023-05-12T09:29:53;101153.19;;;16.63;100.00
48553;BME280;34335;51.566;6.994;2023-05-12T09:32:29;101153.13;;;16.65;100.00
48553;BME280;34335;51.566;6.994;2023-05-12T09:34:55;101147.56;;;16.80;100.00
48553;BME280;34335;51.566;6.994;2023-05-12T09:37:29;101157.84;;;16.93;100.00
48553;BME280;34335;51.566;6.994;2023-05-12T09:40:03;101156.09;;;16.92;100.00
48553;BME280;34335;51.566;6.994;2023-05-12T09:42:30;101154.22;;;17.00;100.00
48553;BME280;34335;51.566;6.994;2023-05-12T09:45:01;101157.59;;;17.07;100.00
48553;BME280;34335;51.566;6.994;2023-05-12T09:47:32;101158.38;;;17.10;100.00
48553;BME280;34335;51.566;6.994;2023-05-12T09:49:57;101159.38;;;17.05;100.00
48553;BME280;34335;51.566;6.994;2023-05-12T09:52:23;101158.09;;;17.26;100.00
48553;BME280;34335;51.566;6.994;2023-05-12T09:54:48;101161.34;;;17.36;100.00
48553;BME280;34335;51.566;6.994;2023-05-12T09:57:17;101157.88;;;17.35;100.00
48553;BME280;34335;51.566;6.994;2023-05-12T09:59:45;101166.03;;;17.62;100.00
48553;BME280;34335;51.566;6.994;2023-05-12T10:02:12;101154.19;;;17.82;100.00
48553;BME280;34335;51.566;6.994;2023-05-12T10:04:44;101153.28;;;17.83;100.00
48553;BME280;34335;51.566;6.994;2023-05-12T10:07:12;101146.59;;;18.07;100.00
48553;BME280;34335;51.566;6.994;2023-05-12T10:09:40;101150.50;;;18.25;100.00
48553;BME280;34335;51.566;6.994;2023-05-12T10:12:07;101151.78;;;18.43;100.00
48553;BME280;34335;51.566;6.994;2023-05-12T10:14:34;101149.59;;;18.26;100.00
48553;BME280;34335;51.566;6.994;2023-05-12T10:17:00;101158.50;;;18.22;100.00
48553;BME280;34335;51.566;6.994;2023-05-12T10:19:27;101152.16;;;18.29;100.00
48553;BME280;34335;51.566;6.994;2023-05-12T10:21:55;101155.44;;;18.37;100.00
48553;BME280;34335;51.566;6.994;2023-05-12T10:24:23;101147.38;;;18.44;100.00
48553;BME280;34335;51.566;6.994;2023-05-12T10:26:52;101148.13;;;18.49;100.00
48553;BME280;34335;51.566;6.994;2023-05-12T10:29:17;101153.97;;;18.60;100.00
48553;BME280;34335;51.566;6.994;2023-05-12T10:31:43;101156.94;;;18.79;100.00
48553;BME280;34335;51.566;6.994;2023-05-12T10:34:15;101160.53;;;18.77;100.00
48553;BME280;34335;51.566;6.994;2023-05-12T10:36:45;101151.47;;;18.87;100.00
48553;BME280;34335;51.566;6.994;2023-05-12T10:39:12;101153.00;;;18.96;100.00
48553;BME280;34335;51.566;6.994;2023-05-12T10:41:39;101158.50;;;18.87;100.00
48553;BME280;34335;51.566;6.994;2023-05-12T10:44:05;101149.69;;;18.88;100.00
48553;BME280;34335;51.566;6.994;2023-05-12T10:46:30;101158.38;;;18.91;100.00
48553;BME280;34335;51.566;6.994;2023-05-12T10:49:05;101154.94;;;18.88;100.00
48553;BME280;34335;51.566;6.994;2023-05-12T10:51:46;101144.88;;;19.04;100.00
48553;BME280;34335;51.566;6.994;2023-05-12T10:54:18;101151.38;;;18.90;100.00
48553;BME280;34335;51.566;6.994;2023-05-12T10:56:44;101145.75;;;19.04;100.00
48553;BME280;34335;51.566;6.994;2023-05-12T11:02:03;101152.97;;;19.27;100.00
48553;BME280;34335;51.566;6.994;2023-05-12T11:04:45;101151.78;;;19.08;100.00
48553;BME280;34335;51.566;6.994;2023-05-12T11:07:12;101146.69;;;19.31;100.00
48553;BME280;34335;51.566;6.994;2023-05-12T11:09:41;101148.06;;;19.43;100.00
48553;BME280;34335;51.566;6.994;2023-05-12T11:12:08;101140.94;;;19.47;100.00
48553;BME280;34335;51.566;6.994;2023-05-12T11:14:34;101147.91;;;19.50;100.00
48553;BME280;34335;51.566;6.994;2023-05-12T11:17:00;101135.88;;;19.68;100.00
48553;BME280;34335;51.566;6.994;2023-05-12T11:19:25;101134.50;;;19.83;100.00
48553;BME280;34335;51.566;6.994;2023-05-12T11:21:52;101133.09;;;20.01;100.00
48553;BME280;34335;51.566;6.994;2023-05-12T11:24:19;101141.91;;;20.00;100.00
48553;BME280;34335;51.566;6.994;2023-05-12T11:26:45;101142.00;;;19.97;100.00
48553;BME280;34335;51.566;6.994;2023-05-12T11:29:10;101142.72;;;20.02;100.00
48553;BME280;34335;51.566;6.994;2023-05-12T11:31:37;101141.06;;;19.71;100.00
48553;BME280;34335;51.566;6.994;2023-05-12T11:34:06;101144.47;;;20.03;100.00
48553;BME280;34335;51.566;6.994;2023-05-12T11:36:36;101141.81;;;20.03;100.00
48553;BME280;34335;51.566;6.994;2023-05-12T11:39:02;101150.59;;;20.03;100.00
48553;BME280;34335;51.566;6.994;2023-05-12T11:41:28;101139.94;;;20.06;100.00
48553;BME280;34335;51.566;6.994;2023-05-12T11:43:53;101144.63;;;19.98;100.00
48553;BME280;34335;51.566;6.994;2023-05-12T11:46:28;101143.22;;;19.86;100.00
48553;BME280;34335;51.566;6.994;2023-05-12T11:48:57;101147.59;;;20.14;100.00
48553;BME280;34335;51.566;6.994;2023-05-12T11:51:24;101149.53;;;20.09;100.00
48553;BME280;34335;51.566;6.994;2023-05-12T11:53:52;101151.78;;;19.95;100.00
48553;BME280;34335;51.566;6.994;2023-05-12T11:56:22;101153.69;;;19.89;100.00
48553;BME280;34335;51.566;6.994;2023-05-12T11:58:53;101154.91;;;20.06;100.00
48553;BME280;34335;51.566;6.994;2023-05-12T12:01:19;101163.31;;;20.17;100.00
48553;BME280;34335;51.566;6.994;2023-05-12T12:03:46;101159.94;;;20.14;100.00
48553;BME280;34335;51.566;6.994;2023-05-12T12:06:13;101158.63;;;20.26;100.00
48553;BME280;34335;51.566;6.994;2023-05-12T12:11:17;101163.06;;;20.25;100.00
48553;BME280;34335;51.566;6.994;2023-05-12T12:13:48;101164.25;;;20.42;100.00
48553;BME280;34335;51.566;6.994;2023-05-12T12:16:16;101168.91;;;20.08;100.00
48553;BME280;34335;51.566;6.994;2023-05-12T12:18:42;101166.91;;;20.42;100.00
48553;BME280;34335;51.566;6.994;2023-05-12T12:21:08;101164.31;;;20.40;100.00
48553;BME280;34335;51.566;6.994;2023-05-12T12:23:33;101174.16;;;20.35;100.00
48553;BME280;34335;51.566;6.994;2023-05-12T12:25:59;101164.00;;;20.49;100.00
48553;BME280;34335;51.566;6.994;2023-05-12T12:28:27;101170.94;;;20.52;100.00
48553;BME280;34335;51.566;6.994;2023-05-12T12:30:52;101171.91;;;20.49;100.00
48553;BME280;34335;51.566;6.994;2023-05-12T12:33:19;101170.63;;;20.61;100.00
48553;BME280;34335;51.566;6.994;2023-05-12T12:35:44;101171.38;;;20.65;100.00
48553;BME280;34335;51.566;6.994;2023-05-12T12:38:11;101171.38;;;20.65;100.00
48553;BME280;34335;51.566;6.994;2023-05-12T12:40:37;101173.38;;;20.83;100.00
48553;BME280;34335;51.566;6.994;2023-05-12T12:43:02;101172.44;;;20.59;100.00